createdAt,value
2018-07-27T00:06:27.566Z,27.80
2018-07-27T00:08:55.837Z,27.70
2018-07-27T00:11:23.496Z,27.80
2018-07-27T00:13:51.043Z,27.80
2018-07-27T00:16:18.689Z,27.90
2018-07-27T00:18:46.273Z,27.90
2018-07-27T00:21:14.484Z,27.90
2018-07-27T00:23:42.855Z,27.80
2018-07-27T00:26:10.497Z,27.80
2018-07-27T00:31:06.382Z,27.70
2018-07-27T00:33:34.486Z,27.80
2018-07-27T00:36:02.089Z,27.70
2018-07-27T00:38:29.622Z,27.70
2018-07-27T00:40:58.607Z,27.70
2018-07-27T00:43:26.285Z,27.60
2018-07-27T00:45:54.128Z,27.50
2018-07-27T00:48:22.383Z,27.40
2018-07-27T00:50:50.538Z,27.40
2018-07-27T00:53:18.154Z,27.40
2018-07-27T00:55:46.425Z,27.50
2018-07-27T00:58:14.116Z,27.60
2018-07-27T01:00:41.807Z,27.60
2018-07-27T01:03:09.555Z,27.60
2018-07-27T01:05:37.139Z,27.70
2018-07-27T01:10:32.836Z,27.70
2018-07-27T01:13:01.573Z,27.70
2018-07-27T01:15:29.480Z,27.70
2018-07-27T01:17:57.775Z,27.70
2018-07-27T01:20:25.518Z,27.70
2018-07-27T01:22:53.836Z,27.70
2018-07-27T01:25:22.274Z,27.60
2018-07-27T01:27:49.906Z,27.70
2018-07-27T01:30:17.703Z,27.60
2018-07-27T01:32:45.815Z,27.50
2018-07-27T01:35:13.507Z,27.50
2018-07-27T01:37:41.161Z,27.40
2018-07-27T01:40:08.798Z,27.40
2018-07-27T01:42:36.958Z,27.50
2018-07-27T01:45:05.269Z,27.50
2018-07-27T01:47:32.868Z,27.50
2018-07-27T01:50:00.457Z,27.40
2018-07-27T01:52:28.940Z,27.40
2018-07-27T01:54:56.560Z,27.30
2018-07-27T01:59:52.185Z,27.40
2018-07-27T02:09:42.786Z,27.30
2018-07-27T02:12:10.348Z,27.20
2018-07-27T02:17:06.206Z,27.20
2018-07-27T02:19:34.028Z,27.10
2018-07-27T02:22:02.187Z,27.10
2018-07-27T02:24:30.398Z,27.00
2018-07-27T02:26:57.997Z,26.90
2018-07-27T02:29:25.563Z,26.80
2018-07-27T02:31:53.269Z,26.70
2018-07-27T02:34:20.851Z,26.60
2018-07-27T02:39:16.609Z,26.70
2018-07-27T02:41:44.628Z,26.80
2018-07-27T02:44:13.840Z,26.90
2018-07-27T02:46:41.528Z,26.90
2018-07-27T02:51:36.936Z,27.00
2018-07-27T02:54:04.611Z,26.90
2018-07-27T02:56:32.384Z,26.90
2018-07-27T02:58:59.969Z,26.90
2018-07-27T03:01:27.506Z,26.90
2018-07-27T03:03:55.706Z,26.90
2018-07-27T03:06:23.393Z,27.00
2018-07-27T03:08:50.994Z,27.00
2018-07-27T03:13:46.065Z,26.90
2018-07-27T03:16:13.754Z,26.90
2018-07-27T03:18:41.641Z,26.90
2018-07-27T03:21:09.245Z,26.90
2018-07-27T03:28:31.837Z,26.90
2018-07-27T03:30:59.508Z,26.90
2018-07-27T03:33:27.123Z,26.90
2018-07-27T03:38:22.220Z,26.70
2018-07-27T03:40:50.083Z,26.70
2018-07-27T03:48:12.547Z,26.70
2018-07-27T04:02:53.029Z,26.50
2018-07-27T04:05:20.588Z,26.50
2018-07-27T04:07:48.227Z,26.50
2018-07-27T04:12:43.265Z,26.50
2018-07-27T04:15:10.928Z,26.50
2018-07-27T04:17:38.512Z,26.50
2018-07-27T04:20:06.097Z,26.50
2018-07-27T04:22:33.799Z,26.50
2018-07-27T04:25:01.314Z,26.50
2018-07-27T04:27:28.949Z,26.50
2018-07-27T04:29:56.530Z,26.50
2018-07-27T04:32:24.740Z,26.50
2018-07-27T04:34:53.120Z,26.50
2018-07-27T04:37:20.687Z,26.50
2018-07-27T04:42:15.716Z,26.50
2018-07-27T04:44:43.275Z,26.60
2018-07-27T04:47:10.950Z,26.50
2018-07-27T04:49:38.456Z,26.60
2018-07-27T04:52:06.691Z,26.60
2018-07-27T04:54:34.339Z,26.60
2018-07-27T04:57:01.924Z,26.70
2018-07-27T04:59:29.428Z,26.70
2018-07-27T05:01:57.073Z,26.70
2018-07-27T05:04:24.689Z,26.70
2018-07-27T05:06:52.550Z,26.70
2018-07-27T05:09:21.569Z,26.70
2018-07-27T05:11:50.107Z,26.80
2018-07-27T05:14:18.954Z,26.80
2018-07-27T05:17:24.538Z,26.80
2018-07-27T05:20:19.231Z,26.70
2018-07-27T05:22:47.537Z,26.50
2018-07-27T05:25:15.346Z,26.40
2018-07-27T05:27:43.755Z,26.40
2018-07-27T05:30:12.034Z,26.50
2018-07-27T05:32:39.822Z,26.50
2018-07-27T05:35:07.456Z,26.50
2018-07-27T05:37:35.126Z,26.60
2018-07-27T05:40:02.758Z,26.80
2018-07-27T05:42:30.315Z,26.50
2018-07-27T05:44:58.191Z,26.80
2018-07-27T05:47:25.767Z,26.90
2018-07-27T05:49:54.324Z,27.10
2018-07-27T05:57:17.245Z,27.60
2018-07-27T05:59:44.917Z,27.70
2018-07-27T06:04:40.492Z,27.80
2018-07-27T06:07:08.086Z,27.80
2018-07-27T06:09:35.733Z,28.00
2018-07-27T06:12:03.439Z,28.10
2018-07-27T06:14:31.734Z,28.20
2018-07-27T06:16:59.993Z,28.30
2018-07-27T06:19:27.654Z,28.70
2018-07-27T06:29:21.188Z,29.50
2018-07-27T06:31:50.426Z,29.70
2018-07-27T06:34:18.514Z,29.90
2018-07-27T06:36:46.087Z,29.90
2018-07-27T06:39:13.802Z,29.90
2018-07-27T06:44:09.284Z,30.10
2018-07-27T06:46:37.549Z,30.20
2018-07-27T06:49:05.279Z,30.30
2018-07-27T06:51:32.973Z,30.30
2018-07-27T06:54:00.602Z,30.50
2018-07-27T06:56:28.884Z,30.70
2018-07-27T06:58:57.876Z,30.60
2018-07-27T07:01:25.552Z,30.90
2018-07-27T07:03:53.093Z,30.90
2018-07-27T07:06:20.757Z,31.10
2018-07-27T07:08:48.805Z,31.20
2018-07-27T07:11:16.271Z,31.30
2018-07-27T07:13:46.372Z,31.60
2018-07-27T07:16:14.025Z,30.10
2018-07-27T07:18:41.668Z,31.70
2018-07-27T07:21:09.825Z,31.60
2018-07-27T07:23:38.185Z,31.90
2018-07-27T07:26:06.768Z,31.90
2018-07-27T07:28:34.206Z,32.10
2018-07-27T07:33:29.326Z,32.40
2018-07-27T07:38:25.690Z,32.50
2018-07-27T07:40:53.615Z,32.70
2018-07-27T07:43:21.255Z,32.70
2018-07-27T07:45:49.368Z,32.80
2018-07-27T07:48:18.035Z,33.00
2018-07-27T07:50:46.323Z,33.00
2018-07-27T07:53:15.424Z,33.30
2018-07-27T07:55:43.476Z,33.30
2018-07-27T07:58:11.089Z,33.60
2018-07-27T08:00:39.297Z,33.70
2018-07-27T08:03:06.988Z,33.70
2018-07-27T08:05:36.034Z,33.70
2018-07-27T08:08:04.354Z,33.80
2018-07-27T08:10:32.473Z,33.90
2018-07-27T08:13:00.245Z,34.00
2018-07-27T08:15:27.916Z,34.10
2018-07-27T08:17:55.504Z,34.20
2018-07-27T08:20:23.069Z,34.40
2018-07-27T08:22:50.722Z,34.50
2018-07-27T08:27:57.741Z,34.90
2018-07-27T08:30:26.039Z,35.10
2018-07-27T08:35:22.069Z,35.30
2018-07-27T08:37:50.216Z,35.30
2018-07-27T08:40:17.862Z,35.30
2018-07-27T08:42:46.483Z,35.60
2018-07-27T08:45:15.443Z,35.60
2018-07-27T08:47:43.017Z,35.70
2018-07-27T08:50:10.709Z,35.80
2018-07-27T08:52:38.353Z,35.70
2018-07-27T08:55:07.267Z,35.80
2018-07-27T08:57:34.902Z,35.80
2018-07-27T09:00:02.621Z,35.90
2018-07-27T09:02:30.949Z,35.90
2018-07-27T09:04:58.516Z,35.80
2018-07-27T09:07:26.040Z,35.90
2018-07-27T09:09:53.659Z,36.10
2018-07-27T09:12:23.486Z,36.00
2018-07-27T09:14:51.653Z,36.00
2018-07-27T09:17:19.302Z,36.20
2018-07-27T09:19:47.365Z,36.30
2018-07-27T09:22:15.033Z,36.60
2018-07-27T09:24:42.701Z,36.70
2018-07-27T09:27:10.517Z,36.60
2018-07-27T09:29:38.819Z,36.40
2018-07-27T09:32:06.523Z,36.40
2018-07-27T09:34:34.158Z,36.60
2018-07-27T09:41:56.797Z,36.90
2018-07-27T09:44:24.566Z,36.80
2018-07-27T09:46:52.139Z,36.80
2018-07-27T09:49:21.004Z,37.00
2018-07-27T09:51:48.549Z,36.90
2018-07-27T09:54:16.262Z,36.80
2018-07-27T09:56:44.795Z,36.80
2018-07-27T09:59:12.460Z,36.90
2018-07-27T10:01:40.092Z,37.00
2018-07-27T10:04:07.665Z,37.30
2018-07-27T10:06:35.184Z,37.40
2018-07-27T10:09:02.942Z,37.40
2018-07-27T10:11:30.558Z,37.30
2018-07-27T10:13:58.223Z,37.30
2018-07-27T10:16:25.778Z,37.30
2018-07-27T10:18:54.675Z,37.30
2018-07-27T10:21:22.299Z,37.40
2018-07-27T10:26:18.253Z,37.00
2018-07-27T10:31:45.258Z,37.30
2018-07-27T10:34:12.998Z,37.30
2018-07-27T10:36:41.246Z,37.40
2018-07-27T10:39:10.810Z,37.30
2018-07-27T10:41:38.524Z,37.40
2018-07-27T10:44:06.885Z,37.40
2018-07-27T10:46:34.511Z,37.40
2018-07-27T10:51:30.080Z,37.30
2018-07-27T10:53:57.768Z,37.50
2018-07-27T11:01:21.771Z,37.40
2018-07-27T11:03:49.494Z,37.50
2018-07-27T11:06:17.056Z,37.30
2018-07-27T11:08:44.655Z,37.30
2018-07-27T11:11:13.590Z,37.50
2018-07-27T11:13:41.226Z,37.40
2018-07-27T11:18:36.927Z,37.40
2018-07-27T11:21:04.556Z,37.50
2018-07-27T11:23:32.118Z,37.40
2018-07-27T11:26:02.498Z,37.50
2018-07-27T11:28:30.881Z,37.50
2018-07-27T11:30:59.308Z,37.80
2018-07-27T11:33:27.029Z,37.60
2018-07-27T11:35:54.698Z,37.70
2018-07-27T11:38:22.957Z,37.90
2018-07-27T11:40:52.149Z,38.00
2018-07-27T11:45:47.486Z,37.60
2018-07-27T11:48:15.064Z,37.60
2018-07-27T11:53:10.272Z,37.60
2018-07-27T11:55:37.848Z,36.90
2018-07-27T11:58:05.671Z,36.60
2018-07-27T12:00:33.305Z,36.60
2018-07-27T12:03:01.764Z,36.70
2018-07-27T12:05:29.509Z,36.90
2018-07-27T12:07:57.194Z,37.20
2018-07-27T12:10:26.969Z,37.50
2018-07-27T12:15:22.976Z,37.70
2018-07-27T12:17:51.320Z,37.40
2018-07-27T12:20:18.844Z,37.30
2018-07-27T12:22:46.456Z,37.40
2018-07-27T12:25:14.887Z,37.50
2018-07-27T12:27:42.628Z,37.60
2018-07-27T12:30:10.233Z,37.70
2018-07-27T12:32:37.784Z,37.60
2018-07-27T12:35:05.938Z,37.50
2018-07-27T12:37:33.567Z,37.30
2018-07-27T12:40:01.149Z,37.30
2018-07-27T12:42:28.888Z,37.10
2018-07-27T12:44:57.039Z,37.00
2018-07-27T12:47:24.720Z,37.20
2018-07-27T12:49:52.249Z,37.20
2018-07-27T12:52:20.169Z,37.10
2018-07-27T12:54:50.554Z,37.00
2018-07-27T12:57:18.252Z,37.20
2018-07-27T12:59:47.214Z,37.30
2018-07-27T13:02:14.752Z,37.40
2018-07-27T13:04:42.395Z,37.50
2018-07-27T13:07:11.689Z,37.60
2018-07-27T13:09:39.332Z,37.80
2018-07-27T13:12:07.184Z,37.60
2018-07-27T13:17:03.843Z,37.10
2018-07-27T13:19:31.734Z,37.10
2018-07-27T13:26:55.850Z,36.70
2018-07-27T13:29:23.405Z,36.20
2018-07-27T13:31:54.990Z,35.90
2018-07-27T13:34:33.859Z,36.10
2018-07-27T13:37:01.726Z,36.40
2018-07-27T13:52:30.806Z,36.60
2018-07-27T13:54:58.297Z,36.90
2018-07-27T13:57:26.028Z,36.80
2018-07-27T13:59:53.697Z,36.90
2018-07-27T14:02:21.359Z,36.90
2018-07-27T14:04:48.970Z,37.00
2018-07-27T14:07:17.316Z,37.00
2018-07-27T14:09:44.916Z,37.00
2018-07-27T14:12:12.599Z,37.00
2018-07-27T14:17:08.247Z,36.90
2018-07-27T14:19:35.735Z,36.80
2018-07-27T14:22:04.001Z,36.60
2018-07-27T14:24:31.678Z,36.40
2018-07-27T14:26:59.448Z,36.40
2018-07-27T14:29:27.236Z,36.30
2018-07-27T14:31:55.077Z,36.10
2018-07-27T14:34:22.622Z,35.90
2018-07-27T14:36:50.319Z,35.70
2018-07-27T14:41:45.338Z,35.70
2018-07-27T14:44:13.593Z,35.60
2018-07-27T14:46:41.296Z,35.50
2018-07-27T14:51:40.899Z,35.40
2018-07-27T14:54:10.053Z,35.30
2018-07-27T14:56:38.193Z,35.30
2018-07-27T14:59:06.067Z,35.00
2018-07-27T15:01:34.444Z,34.80
2018-07-27T15:08:57.328Z,34.90
2018-07-27T15:11:25.090Z,34.90
2018-07-27T15:16:23.754Z,35.00
2018-07-27T15:18:51.823Z,34.90
2018-07-27T15:21:19.721Z,35.00
2018-07-27T15:25:13.175Z,35.00
2018-07-27T15:27:40.829Z,34.80
2018-07-27T15:30:08.533Z,34.80
2018-07-27T15:32:36.124Z,34.80
2018-07-27T15:35:03.788Z,34.80
2018-07-27T15:37:31.402Z,34.70
2018-07-27T15:40:02.032Z,34.70
2018-07-27T15:42:29.697Z,34.60
2018-07-27T15:44:57.740Z,34.60
2018-07-27T15:47:25.459Z,34.60
2018-07-27T15:49:53.010Z,34.50
2018-07-27T15:54:51.444Z,34.40
2018-07-27T15:57:21.129Z,34.40
2018-07-27T15:59:49.339Z,34.30
2018-07-27T16:02:17.876Z,34.30
2018-07-27T16:04:45.763Z,34.20
2018-07-27T16:17:04.497Z,34.00
2018-07-27T16:19:32.058Z,34.00
2018-07-27T16:22:00.191Z,33.90
2018-07-27T16:24:28.053Z,34.00
2018-07-27T16:26:56.507Z,34.00
2018-07-27T16:29:24.317Z,34.00
2018-07-27T16:31:51.958Z,33.90
2018-07-27T16:34:19.720Z,33.80
2018-07-27T16:36:47.368Z,33.90
2018-07-27T16:39:15.596Z,33.90
2018-07-27T16:41:44.289Z,33.90
2018-07-27T16:44:11.967Z,33.80
2018-07-27T16:46:40.065Z,33.90
2018-07-27T16:49:08.303Z,33.60
2018-07-27T16:51:37.077Z,33.40
2018-07-27T16:54:05.793Z,33.40
2018-07-27T16:56:34.667Z,33.30
2018-07-27T16:59:02.330Z,33.30
2018-07-27T17:01:31.733Z,33.30
2018-07-27T17:03:59.389Z,33.30
2018-07-27T17:06:27.814Z,33.10
2018-07-27T17:08:57.132Z,33.10
2018-07-27T17:11:25.369Z,33.00
2018-07-27T17:13:52.937Z,32.80
2018-07-27T17:16:20.523Z,32.90
2018-07-27T17:23:44.270Z,32.60
2018-07-27T17:26:12.448Z,32.80
2018-07-27T17:28:40.034Z,32.70
2018-07-27T17:31:08.272Z,32.70
2018-07-27T17:33:36.454Z,32.60
2018-07-27T17:36:04.055Z,32.60
2018-07-27T17:38:31.690Z,32.60
2018-07-27T17:40:59.260Z,32.40
2018-07-27T17:43:26.876Z,32.50
2018-07-27T17:45:54.449Z,32.50
2018-07-27T17:48:22.158Z,32.50
2018-07-27T17:50:49.650Z,32.50
2018-07-27T17:58:13.327Z,32.50
2018-07-27T18:00:40.900Z,32.30
2018-07-27T18:03:08.490Z,32.30
2018-07-27T18:05:36.090Z,32.20
2018-07-27T18:08:03.876Z,32.30
2018-07-27T18:10:32.620Z,32.40
2018-07-27T18:13:00.271Z,32.40
2018-07-27T18:15:29.544Z,32.30
2018-07-27T18:17:57.059Z,32.30
2018-07-27T18:20:24.630Z,32.20
2018-07-27T18:22:52.123Z,32.30
2018-07-27T18:25:19.781Z,32.10
2018-07-27T18:27:47.455Z,32.10
2018-07-27T18:32:43.039Z,32.10
2018-07-27T18:40:07.708Z,32.20
2018-07-27T18:42:35.511Z,32.10
2018-07-27T18:45:04.112Z,32.10
2018-07-27T18:47:31.836Z,32.10
2018-07-27T18:49:59.484Z,32.00
2018-07-27T18:52:27.707Z,31.90
2018-07-27T18:54:55.313Z,31.80
2018-07-27T18:57:23.083Z,31.70
2018-07-27T18:59:50.626Z,31.60
2018-07-27T19:02:18.955Z,31.60
2018-07-27T19:04:47.113Z,31.50
2018-07-27T19:07:14.792Z,31.40
2018-07-27T19:09:42.425Z,31.40
2018-07-27T19:12:10.068Z,31.20
2018-07-27T19:14:38.580Z,31.20
2018-07-27T19:17:06.146Z,31.10
2018-07-27T19:19:34.522Z,30.90
2018-07-27T19:22:02.038Z,30.90
2018-07-27T19:24:29.980Z,30.80
2018-07-27T19:26:58.735Z,30.70
2018-07-27T19:29:28.127Z,30.70
2018-07-27T19:31:55.761Z,30.70
2018-07-27T19:34:23.313Z,30.80
2018-07-27T19:36:51.067Z,30.80
2018-07-27T19:39:18.863Z,30.80
2018-07-27T19:43:10.972Z,30.80
2018-07-27T19:45:39.348Z,30.80
2018-07-27T19:48:07.990Z,30.80
2018-07-27T19:50:35.596Z,30.50
2018-07-27T19:53:03.223Z,30.70
2018-07-27T19:55:30.818Z,30.70
2018-07-27T20:00:27.418Z,30.50
2018-07-27T20:05:25.209Z,30.10
2018-07-27T20:07:52.774Z,30.10
2018-07-27T20:10:20.648Z,30.00
2018-07-27T20:12:50.275Z,30.00
2018-07-27T20:15:18.877Z,30.00
2018-07-27T20:17:51.456Z,30.00
2018-07-27T20:20:19.565Z,30.10
2018-07-27T20:22:48.080Z,30.10
2018-07-27T20:25:15.748Z,30.30
2018-07-27T20:27:43.925Z,30.20
2018-07-27T20:30:12.517Z,30.30
2018-07-27T20:32:40.801Z,30.40
2018-07-27T20:35:09.043Z,30.30
2018-07-27T20:37:36.627Z,30.30
2018-07-27T20:40:05.953Z,30.30
2018-07-27T20:47:30.493Z,30.30
2018-07-27T20:49:58.768Z,30.30
2018-07-27T20:52:27.135Z,30.20
2018-07-27T20:54:55.426Z,30.20
2018-07-27T20:57:24.627Z,30.20
2018-07-27T20:59:52.335Z,30.10
2018-07-27T21:04:47.796Z,30.20
2018-07-27T21:07:15.485Z,30.20
2018-07-27T21:12:10.688Z,30.00
2018-07-27T21:14:38.198Z,29.90
2018-07-27T21:17:05.889Z,29.80
2018-07-27T21:22:01.709Z,29.80
2018-07-27T21:24:29.375Z,29.90
2018-07-27T21:26:57.414Z,29.90
2018-07-27T21:29:25.614Z,30.00
2018-07-27T21:34:22.790Z,30.00
2018-07-27T21:36:50.545Z,29.90
2018-07-27T21:39:19.173Z,29.90
2018-07-27T21:41:47.067Z,29.90
2018-07-27T21:44:16.275Z,29.90
2018-07-27T21:46:43.946Z,29.90
2018-07-27T21:51:39.483Z,29.70
2018-07-27T21:56:34.609Z,29.70
2018-07-27T21:59:02.232Z,29.70
2018-07-27T22:01:30.267Z,29.60
2018-07-27T22:03:57.808Z,29.40
2018-07-27T22:06:25.454Z,29.30
2018-07-27T22:08:53.051Z,29.10
2018-07-27T22:11:21.016Z,29.00
2018-07-27T22:13:50.976Z,29.00
2018-07-27T22:16:18.521Z,29.00
2018-07-27T22:18:46.472Z,29.00
2018-07-27T22:21:14.231Z,29.00
2018-07-27T22:23:41.935Z,29.20
2018-07-27T22:26:09.658Z,29.20
2018-07-27T22:31:05.505Z,29.30
2018-07-27T22:36:02.387Z,29.30
2018-07-27T22:38:30.837Z,29.20
2018-07-27T22:40:59.427Z,29.20
2018-07-27T22:43:27.263Z,29.00
2018-07-27T22:48:22.739Z,29.10
2018-07-27T22:50:51.110Z,29.10
2018-07-27T22:53:18.939Z,29.00
2018-07-27T22:55:46.614Z,29.00
2018-07-27T22:58:14.418Z,28.80
2018-07-27T23:00:42.281Z,28.80
2018-07-27T23:03:09.856Z,28.80
2018-07-27T23:05:37.681Z,28.70
2018-07-27T23:08:06.161Z,28.70
2018-07-27T23:10:34.491Z,28.80
2018-07-27T23:13:02.217Z,28.70
2018-07-27T23:15:29.887Z,28.70
2018-07-27T23:17:57.468Z,28.70
2018-07-27T23:20:25.286Z,28.80
2018-07-27T23:22:52.921Z,28.80
2018-07-27T23:25:21.282Z,28.60
2018-07-27T23:27:50.868Z,28.60
2018-07-27T23:30:18.667Z,28.60
2018-07-27T23:32:48.142Z,28.60
2018-07-27T23:35:15.968Z,28.60
2018-07-27T23:40:11.199Z,28.70
2018-07-27T23:42:38.716Z,28.70
2018-07-27T23:45:07.511Z,28.70
2018-07-27T23:47:35.169Z,28.70
2018-07-27T23:50:04.172Z,28.70
2018-07-27T23:52:31.848Z,28.70
2018-07-27T23:54:59.432Z,28.70
2018-07-27T23:57:27.288Z,28.60
